Time;durP1;ratioP1;P1;durP2;ratioP2;P2;SDS_P1;SDS_P2;PMS_P1;PMS_P2;Temp;Humidity;BMP_temperature;BMP_pressure;BME280_temperature;BME280_humidity;BME280_pressure;Samples;Min_cycle;Max_cycle;Signal;HPM_P1;HPM_P2
2022/09/27 00:01:40;;;;;;;4.03;0.55;;;;;;;;;;5055396;28;20398;-74
2022/09/27 00:04:06;;;;;;;5.80;0.60;;;;;;;;;;5055706;28;20547;-74
2022/09/27 00:06:33;;;;;;;2.72;0.43;;;;;;;;;;5054587;28;20056;-74
2022/09/27 00:08:59;;;;;;;6.47;0.70;;;;;;;;;;5055038;28;20120;-74
2022/09/27 00:11:33;;;;;;;3.50;0.52;;;;;;;;;;5053664;28;20176;-74
2022/09/27 00:13:59;;;;;;;4.80;0.57;;;;;;;;;;5055710;28;20036;-74
2022/09/27 00:16:27;;;;;;;3.65;0.50;;;;;;;;;;5053591;28;20124;-74
2022/09/27 00:18:53;;;;;;;3.75;0.52;;;;;;;;;;5054507;28;20044;-74
2022/09/27 00:21:19;;;;;;;2.83;0.35;;;;;;;;;;5053954;28;20049;-74
2022/09/27 00:23:46;;;;;;;4.05;0.40;;;;;;;;;;5055730;28;20033;-74
2022/09/27 00:26:13;;;;;;;5.65;0.60;;;;;;;;;;5053965;28;20053;-74
2022/09/27 00:28:39;;;;;;;2.05;0.50;;;;;;;;;;5056580;28;20445;-74
2022/09/27 00:31:10;;;;;;;2.90;0.45;;;;;;;;;;5053864;28;20041;-75
2022/09/27 00:33:36;;;;;;;2.45;0.30;;;;;;;;;;5052613;28;20043;-74
2022/09/27 00:36:04;;;;;;;1.58;0.40;;;;;;;;;;5054972;28;20048;-73
2022/09/27 00:38:30;;;;;;;3.58;0.75;;;;;;;;;;5054935;28;20045;-74
2022/09/27 00:40:56;;;;;;;4.63;0.77;;;;;;;;;;5054849;28;20044;-74
2022/09/27 00:43:23;;;;;;;5.07;0.60;;;;;;;;;;5053660;28;20051;-71
2022/09/27 00:45:57;;;;;;;4.93;0.60;;;;;;;;;;5053403;28;20037;-70
2022/09/27 00:48:26;;;;;;;2.65;0.50;;;;;;;;;;5054042;28;20453;-70
2022/09/27 00:50:54;;;;;;;4.97;0.60;;;;;;;;;;5036836;28;20044;-70
2022/09/27 00:53:50;;;;;;;2.65;0.68;;;;;;;;;;5053600;28;20045;-69
2022/09/27 00:56:21;;;;;;;4.28;0.60;;;;;;;;;;5044801;28;20095;-70
2022/09/27 00:58:52;;;;;;;7.97;0.75;;;;;;;;;;5053539;28;20128;-73
2022/09/27 01:01:19;;;;;;;4.15;0.50;;;;;;;;;;5070420;28;20079;-74
2022/09/27 01:03:45;;;;;;;4.13;0.70;;;;;;;;;;5054310;28;20123;-71
2022/09/27 01:06:11;;;;;;;3.97;0.50;;;;;;;;;;5036802;28;20054;-73
2022/09/27 01:08:38;;;;;;;5.13;0.57;;;;;;;;;;5053701;28;20041;-71
2022/09/27 01:11:04;;;;;;;4.05;0.57;;;;;;;;;;5054290;28;20041;-70
2022/09/27 01:13:35;;;;;;;6.65;0.55;;;;;;;;;;5036195;28;20045;-71
2022/09/27 01:16:01;;;;;;;3.35;0.45;;;;;;;;;;5053487;28;20047;-74
2022/09/27 01:18:27;;;;;;;1.38;0.40;;;;;;;;;;5053410;28;20052;-70
2022/09/27 01:21:16;;;;;;;5.97;0.50;;;;;;;;;;5053614;28;20041;-70
2022/09/27 01:24:03;;;;;;;3.08;0.40;;;;;;;;;;5035032;28;20041;-70
2022/09/27 01:26:32;;;;;;;3.40;0.40;;;;;;;;;;5041257;28;20049;-70
2022/09/27 01:29:12;;;;;;;4.63;0.68;;;;;;;;;;5052722;28;20048;-70
2022/09/27 01:31:45;;;;;;;5.07;0.60;;;;;;;;;;5053198;28;20032;-74
2022/09/27 01:34:18;;;;;;;3.47;0.63;;;;;;;;;;5054191;28;20040;-74
2022/09/27 01:37:00;;;;;;;6.35;0.80;;;;;;;;;;5052593;28;20036;-74
2022/09/27 01:39:33;;;;;;;6.28;0.65;;;;;;;;;;5053022;28;20394;-74
2022/09/27 01:42:07;;;;;;;4.35;0.82;;;;;;;;;;5035730;28;20477;-74
2022/09/27 01:44:46;;;;;;;6.05;0.85;;;;;;;;;;5052475;28;20084;-74
2022/09/27 01:47:17;;;;;;;5.72;0.70;;;;;;;;;;5059851;28;20037;-73
2022/09/27 01:50:02;;;;;;;5.18;0.57;;;;;;;;;;5050629;28;20041;-73
2022/09/27 01:52:39;;;;;;;4.25;0.57;;;;;;;;;;5053402;28;20502;-74
2022/09/27 01:55:07;;;;;;;3.47;0.55;;;;;;;;;;5046837;28;20060;-73
2022/09/27 01:57:42;;;;;;;3.58;0.57;;;;;;;;;;5053940;28;20040;-75
2022/09/27 02:00:10;;;;;;;3.40;0.57;;;;;;;;;;5053065;28;20158;-74
2022/09/27 02:02:41;;;;;;;5.07;0.40;;;;;;;;;;5052893;28;20048;-75
2022/09/27 02:05:09;;;;;;;4.13;0.60;;;;;;;;;;5052190;28;20049;-74
2022/09/27 02:07:47;;;;;;;2.80;0.50;;;;;;;;;;5042162;28;20053;-74
2022/09/27 02:10:25;;;;;;;4.07;0.55;;;;;;;;;;5052018;28;20102;-74
2022/09/27 02:12:56;;;;;;;4.43;0.52;;;;;;;;;;5053331;28;20146;-74
2022/09/27 02:15:23;;;;;;;5.07;0.75;;;;;;;;;;5051897;28;20071;-75
2022/09/27 02:17:55;;;;;;;6.75;0.60;;;;;;;;;;5050947;28;20040;-74
2022/09/27 02:20:29;;;;;;;6.72;0.60;;;;;;;;;;5052967;28;20063;-75
2022/09/27 02:22:59;;;;;;;2.00;0.40;;;;;;;;;;5035480;28;20037;-74
2022/09/27 02:25:28;;;;;;;3.80;0.85;;;;;;;;;;5053540;28;20036;-74
2022/09/27 02:28:00;;;;;;;0.80;0.30;;;;;;;;;;5052768;28;20441;-74
2022/09/27 02:30:26;;;;;;;2.53;0.50;;;;;;;;;;5052826;28;20041;-74
2022/09/27 02:32:52;;;;;;;3.22;0.40;;;;;;;;;;5052789;28;20551;-74
2022/09/27 02:35:22;;;;;;;1.73;0.40;;;;;;;;;;5051566;28;20505;-71
2022/09/27 02:37:49;;;;;;;4.60;0.43;;;;;;;;;;5051475;28;20521;-70
2022/09/27 02:40:15;;;;;;;4.05;0.40;;;;;;;;;;5051333;28;20083;-70
2022/09/27 02:42:42;;;;;;;2.17;0.40;;;;;;;;;;5050989;28;20037;-71
2022/09/27 02:45:08;;;;;;;3.97;0.40;;;;;;;;;;5051744;28;20763;-74
2022/09/27 02:47:42;;;;;;;3.40;0.30;;;;;;;;;;5051733;28;20541;-74
2022/09/27 02:50:24;;;;;;;3.00;0.38;;;;;;;;;;5051490;28;20045;-74
2022/09/27 02:52:53;;;;;;;1.85;0.30;;;;;;;;;;5052216;28;20090;-74
2022/09/27 02:55:28;;;;;;;1.52;0.45;;;;;;;;;;5052499;28;20409;-71
2022/09/27 02:58:20;;;;;;;1.02;0.20;;;;;;;;;;5034084;28;20120;-71
2022/09/27 03:00:49;;;;;;;1.17;0.20;;;;;;;;;;5051213;28;20044;-70
2022/09/27 03:03:22;;;;;;;2.53;0.40;;;;;;;;;;5051937;28;20375;-70
2022/09/27 03:06:08;;;;;;;2.92;0.47;;;;;;;;;;5050617;28;20045;-74
2022/09/27 03:08:34;;;;;;;5.65;0.82;;;;;;;;;;5061395;28;20048;-74
2022/09/27 03:11:00;;;;;;;2.47;0.50;;;;;;;;;;5051128;28;20045;-74
2022/09/27 03:13:26;;;;;;;1.75;0.40;;;;;;;;;;5051300;28;20397;-74
2022/09/27 03:15:52;;;;;;;1.73;0.25;;;;;;;;;;5052097;28;20439;-74
2022/09/27 03:18:19;;;;;;;2.78;0.40;;;;;;;;;;5050323;28;20417;-74
2022/09/27 03:20:45;;;;;;;0.95;0.30;;;;;;;;;;5052333;28;20049;-74
2022/09/27 03:23:11;;;;;;;2.20;0.40;;;;;;;;;;5051227;28;20045;-74
2022/09/27 03:25:37;;;;;;;2.15;0.30;;;;;;;;;;5034636;28;20032;-74
2022/09/27 03:28:03;;;;;;;1.52;0.40;;;;;;;;;;5051798;28;20100;-74
2022/09/27 03:30:29;;;;;;;4.13;0.68;;;;;;;;;;5051937;28;20057;-74
2022/09/27 03:32:55;;;;;;;7.70;0.75;;;;;;;;;;5052222;28;20037;-74
2022/09/27 03:35:22;;;;;;;3.13;0.68;;;;;;;;;;5050895;28;20094;-74
2022/09/27 03:37:48;;;;;;;2.35;0.40;;;;;;;;;;5050415;28;20116;-74
2022/09/27 03:40:14;;;;;;;2.03;0.40;;;;;;;;;;5050880;28;20045;-74
2022/09/27 03:42:40;;;;;;;3.60;0.68;;;;;;;;;;5051987;28;20057;-70
2022/09/27 03:45:06;;;;;;;3.85;0.30;;;;;;;;;;5050337;28;20033;-71
2022/09/27 03:47:33;;;;;;;3.80;0.57;;;;;;;;;;5038113;28;20040;-70
2022/09/27 03:49:59;;;;;;;4.90;0.45;;;;;;;;;;5049994;28;20037;-70
2022/09/27 03:52:25;;;;;;;3.80;0.50;;;;;;;;;;5051714;28;20087;-70
2022/09/27 03:54:51;;;;;;;2.30;0.32;;;;;;;;;;5049824;28;20055;-71
2022/09/27 03:57:17;;;;;;;5.32;0.60;;;;;;;;;;5034305;28;20049;-70
2022/09/27 03:59:43;;;;;;;4.60;0.45;;;;;;;;;;5049787;28;20041;-71
2022/09/27 04:02:09;;;;;;;7.97;0.60;;;;;;;;;;5048764;28;20033;-71
2022/09/27 04:04:35;;;;;;;4.95;0.60;;;;;;;;;;5049325;28;20037;-70
2022/09/27 04:07:02;;;;;;;4.93;0.45;;;;;;;;;;5037599;28;20107;-71
2022/09/27 04:09:28;;;;;;;3.67;0.60;;;;;;;;;;5022784;28;20049;-70
2022/09/27 04:11:54;;;;;;;3.47;0.47;;;;;;;;;;5017253;28;20494;-70
2022/09/27 04:14:22;;;;;;;1.27;0.43;;;;;;;;;;5022402;28;20869;-70
2022/09/27 04:16:48;;;;;;;4.93;0.88;;;;;;;;;;5050234;28;20559;-70
2022/09/27 04:19:14;;;;;;;2.55;0.60;;;;;;;;;;5050333;28;20041;-70
2022/09/27 04:21:40;;;;;;;3.60;0.55;;;;;;;;;;5051413;28;20138;-70
2022/09/27 04:24:06;;;;;;;6.55;1.27;;;;;;;;;;5049587;28;20627;-70
2022/09/27 04:26:32;;;;;;;3.53;0.45;;;;;;;;;;5033534;28;20037;-71
2022/09/27 04:28:59;;;;;;;3.28;0.60;;;;;;;;;;5052824;28;20052;-71
2022/09/27 04:31:25;;;;;;;4.25;0.65;;;;;;;;;;5054120;28;20037;-70
2022/09/27 04:33:52;;;;;;;5.95;0.60;;;;;;;;;;5054545;28;20043;-70
2022/09/27 04:36:25;;;;;;;3.03;0.68;;;;;;;;;;5053700;28;20579;-70
2022/09/27 04:38:52;;;;;;;3.65;0.50;;;;;;;;;;5054790;28;20037;-71
2022/09/27 04:41:20;;;;;;;5.15;0.60;;;;;;;;;;5036825;28;20504;-70
2022/09/27 04:43:46;;;;;;;4.80;0.60;;;;;;;;;;5059847;28;20037;-71
2022/09/27 04:46:13;;;;;;;4.72;0.50;;;;;;;;;;5052683;28;20045;-71
2022/09/27 04:48:40;;;;;;;5.70;0.60;;;;;;;;;;5052394;28;20033;-70
2022/09/27 04:51:06;;;;;;;3.47;0.50;;;;;;;;;;5053462;28;20080;-71
2022/09/27 04:53:33;;;;;;;2.38;0.88;;;;;;;;;;5051942;28;20467;-73
2022/09/27 04:56:05;;;;;;;5.07;0.77;;;;;;;;;;5052930;28;20506;-74
2022/09/27 04:58:33;;;;;;;3.65;0.68;;;;;;;;;;5054169;28;20087;-74
2022/09/27 05:00:59;;;;;;;4.22;0.60;;;;;;;;;;5052967;28;20094;-74
2022/09/27 05:03:26;;;;;;;6.75;0.77;;;;;;;;;;5052951;28;20458;-73
2022/09/27 05:05:52;;;;;;;4.03;0.70;;;;;;;;;;5052807;28;20128;-74
2022/09/27 05:08:19;;;;;;;5.22;0.80;;;;;;;;;;5052854;28;20446;-74
2022/09/27 05:10:46;;;;;;;2.05;0.60;;;;;;;;;;5054362;28;20041;-74
2022/09/27 05:13:12;;;;;;;8.13;0.98;;;;;;;;;;5053127;28;20509;-78
2022/09/27 05:15:39;;;;;;;7.15;0.77;;;;;;;;;;5052890;28;20033;-70
2022/09/27 05:18:08;;;;;;;9.20;1.67;;;;;;;;;;5034798;28;20547;-70
2022/09/27 05:20:35;;;;;;;5.30;0.95;;;;;;;;;;5036237;28;20053;-70
2022/09/27 05:23:03;;;;;;;8.43;0.90;;;;;;;;;;5052462;28;20120;-70
2022/09/27 05:25:30;;;;;;;6.80;1.65;;;;;;;;;;5052090;28;20394;-70
2022/09/27 05:27:56;;;;;;;5.85;0.90;;;;;;;;;;5036321;28;20047;-70
2022/09/27 05:30:22;;;;;;;10.30;1.30;;;;;;;;;;5052678;28;20102;-70
2022/09/27 05:32:49;;;;;;;5.32;1.02;;;;;;;;;;5053292;28;20239;-70
2022/09/27 05:35:16;;;;;;;4.00;0.88;;;;;;;;;;5051841;28;20051;-70
2022/09/27 05:37:42;;;;;;;9.18;1.00;;;;;;;;;;5035717;28;20041;-70
2022/09/27 05:40:09;;;;;;;7.47;0.75;;;;;;;;;;5051041;28;20053;-77
2022/09/27 05:42:38;;;;;;;9.50;1.05;;;;;;;;;;5053565;28;20520;-77
2022/09/27 05:45:06;;;;;;;5.78;0.98;;;;;;;;;;5019340;28;20049;-77
2022/09/27 05:47:32;;;;;;;2.47;0.85;;;;;;;;;;5040066;28;20037;-77
2022/09/27 05:49:58;;;;;;;5.68;0.70;;;;;;;;;;5035619;28;20383;-70
2022/09/27 05:52:25;;;;;;;3.28;0.90;;;;;;;;;;5052062;28;20048;-70
2022/09/27 05:54:51;;;;;;;7.43;1.13;;;;;;;;;;5051748;28;20115;-70
2022/09/27 05:57:17;;;;;;;4.47;0.88;;;;;;;;;;5050919;28;20045;-70
2022/09/27 05:59:43;;;;;;;4.45;0.60;;;;;;;;;;5051516;28;20037;-71
2022/09/27 06:02:11;;;;;;;4.35;0.73;;;;;;;;;;5052796;28;20528;-71
2022/09/27 06:04:37;;;;;;;7.93;0.88;;;;;;;;;;5051522;28;20041;-70
2022/09/27 06:07:03;;;;;;;4.07;0.80;;;;;;;;;;5052227;28;20079;-70
2022/09/27 06:09:29;;;;;;;4.78;0.80;;;;;;;;;;5052554;28;20048;-70
2022/09/27 06:11:55;;;;;;;5.65;0.70;;;;;;;;;;5035253;28;20037;-70
2022/09/27 06:14:21;;;;;;;7.82;0.85;;;;;;;;;;5051836;28;20036;-78
2022/09/27 06:16:47;;;;;;;3.25;0.63;;;;;;;;;;5052055;28;20045;-79
2022/09/27 06:19:13;;;;;;;6.10;0.60;;;;;;;;;;5052835;28;20051;-77
2022/09/27 06:21:40;;;;;;;4.13;0.63;;;;;;;;;;5053342;28;20117;-78
2022/09/27 06:24:06;;;;;;;3.88;0.75;;;;;;;;;;5035501;28;20041;-78
2022/09/27 06:26:32;;;;;;;4.63;0.90;;;;;;;;;;5052786;28;20090;-78
2022/09/27 06:28:58;;;;;;;3.88;0.80;;;;;;;;;;5052377;28;20045;-78
2022/09/27 06:31:24;;;;;;;3.08;0.70;;;;;;;;;;5034017;28;20131;-78
2022/09/27 06:33:50;;;;;;;4.03;0.60;;;;;;;;;;5033657;28;20075;-78
2022/09/27 06:36:17;;;;;;;4.38;0.60;;;;;;;;;;5051203;28;20041;-78
2022/09/27 06:38:45;;;;;;;2.67;0.52;;;;;;;;;;5050834;28;20041;-70
2022/09/27 06:41:12;;;;;;;2.08;0.47;;;;;;;;;;5052341;28;20044;-78
2022/09/27 06:43:38;;;;;;;4.95;1.15;;;;;;;;;;5051948;28;20111;-70
2022/09/27 06:46:04;;;;;;;3.08;0.90;;;;;;;;;;5051725;28;20498;-78
2022/09/27 06:48:36;;;;;;;2.50;0.65;;;;;;;;;;5050759;28;20049;-78
2022/09/27 06:51:02;;;;;;;6.25;0.68;;;;;;;;;;5049057;28;20041;-78
2022/09/27 06:53:28;;;;;;;5.55;0.52;;;;;;;;;;5052664;28;20051;-78
2022/09/27 06:55:59;;;;;;;3.97;0.93;;;;;;;;;;5052638;28;20397;-71
2022/09/27 07:01:10;;;;;;;1.85;0.40;;;;;;;;;;5053426;28;20091;-78
2022/09/27 07:03:40;;;;;;;3.83;0.60;;;;;;;;;;5052194;28;20482;-71
2022/09/27 07:06:07;;;;;;;4.75;0.50;;;;;;;;;;5050813;28;20057;-78
2022/09/27 07:08:34;;;;;;;1.90;0.43;;;;;;;;;;5033644;28;20044;-79
2022/09/27 07:11:01;;;;;;;2.45;0.40;;;;;;;;;;5050605;28;20037;-79
2022/09/27 07:13:33;;;;;;;1.00;0.38;;;;;;;;;;5049431;28;20045;-80
2022/09/27 07:16:00;;;;;;;1.65;0.30;;;;;;;;;;5078180;28;20044;-79
2022/09/27 07:18:26;;;;;;;5.43;0.75;;;;;;;;;;5060941;28;20029;-79
2022/09/27 07:20:52;;;;;;;2.72;0.40;;;;;;;;;;5063687;28;20374;-78
2022/09/27 07:23:19;;;;;;;4.65;0.50;;;;;;;;;;5025392;28;20132;-79
2022/09/27 07:25:46;;;;;;;2.30;0.50;;;;;;;;;;5052339;28;20429;-79
2022/09/27 07:28:14;;;;;;;3.78;0.40;;;;;;;;;;5051696;28;20045;-78
2022/09/27 07:30:41;;;;;;;3.95;0.40;;;;;;;;;;5050616;28;20060;-79
2022/09/27 07:33:08;;;;;;;4.43;0.80;;;;;;;;;;5051993;28;20037;-78
2022/09/27 07:35:38;;;;;;;1.55;0.40;;;;;;;;;;5041897;28;20389;-79
2022/09/27 07:38:07;;;;;;;2.15;0.35;;;;;;;;;;5052854;28;20053;-79
2022/09/27 07:40:33;;;;;;;3.88;0.50;;;;;;;;;;5036831;28;20041;-79
2022/09/27 07:42:59;;;;;;;3.17;0.50;;;;;;;;;;5067103;28;20041;-80
2022/09/27 07:45:26;;;;;;;2.20;0.50;;;;;;;;;;5050464;28;20048;-79
2022/09/27 07:47:52;;;;;;;3.08;0.35;;;;;;;;;;5050870;28;20134;-80
2022/09/27 07:50:19;;;;;;;2.70;0.47;;;;;;;;;;5052118;28;20063;-79
2022/09/27 07:52:46;;;;;;;4.38;0.43;;;;;;;;;;5052387;28;20040;-79
2022/09/27 07:55:13;;;;;;;3.10;0.30;;;;;;;;;;5050754;28;20044;-79
2022/09/27 07:57:39;;;;;;;3.70;0.60;;;;;;;;;;5049736;28;20041;-79
2022/09/27 08:00:06;;;;;;;3.15;0.40;;;;;;;;;;5049893;28;20066;-79
2022/09/27 08:02:32;;;;;;;1.77;0.30;;;;;;;;;;5050739;28;20536;-79
2022/09/27 08:04:59;;;;;;;3.22;0.40;;;;;;;;;;5055660;28;20428;-79
2022/09/27 08:07:25;;;;;;;3.60;0.40;;;;;;;;;;5055049;28;20110;-71
2022/09/27 08:09:55;;;;;;;2.03;0.40;;;;;;;;;;5054627;28;20060;-78
2022/09/27 08:12:21;;;;;;;1.67;0.30;;;;;;;;;;5054129;28;20040;-80
2022/09/27 08:14:48;;;;;;;2.45;0.40;;;;;;;;;;5053982;28;20114;-71
2022/09/27 08:17:14;;;;;;;1.85;0.30;;;;;;;;;;5064014;28;20101;-71
2022/09/27 08:19:40;;;;;;;2.78;0.45;;;;;;;;;;5070276;28;20040;-79
2022/09/27 08:22:07;;;;;;;2.33;0.30;;;;;;;;;;5053873;28;20073;-79
2022/09/27 08:24:33;;;;;;;3.50;0.40;;;;;;;;;;5037508;28;20049;-79
2022/09/27 08:27:00;;;;;;;6.00;0.50;;;;;;;;;;5055512;28;20083;-78
2022/09/27 08:29:26;;;;;;;2.70;0.30;;;;;;;;;;5037513;28;20045;-80
2022/09/27 08:31:53;;;;;;;3.88;0.45;;;;;;;;;;5054563;28;20116;-78
2022/09/27 08:34:22;;;;;;;2.08;0.20;;;;;;;;;;5048058;28;20047;-81
2022/09/27 08:36:48;;;;;;;3.80;0.50;;;;;;;;;;5046647;28;20045;-81
2022/09/27 08:39:15;;;;;;;1.98;0.50;;;;;;;;;;5052699;28;20104;-81
2022/09/27 08:41:52;;;;;;;4.05;0.57;;;;;;;;;;5035029;28;20557;-73
2022/09/27 08:44:34;;;;;;;2.22;0.35;;;;;;;;;;5050442;28;20041;-72
2022/09/27 08:47:03;;;;;;;2.15;0.40;;;;;;;;;;5047222;28;20033;-74
2022/09/27 08:49:48;;;;;;;2.40;0.38;;;;;;;;;;5052285;28;20107;-73
2022/09/27 08:52:27;;;;;;;2.88;0.30;;;;;;;;;;5053649;28;20037;-79
2022/09/27 08:54:55;;;;;;;5.47;0.40;;;;;;;;;;5039966;28;20052;-78
2022/09/27 08:57:23;;;;;;;2.22;0.30;;;;;;;;;;5054452;28;20045;-79
2022/09/27 08:59:58;;;;;;;0.77;0.17;;;;;;;;;;5053358;28;20047;-79
2022/09/27 09:02:25;;;;;;;2.28;0.22;;;;;;;;;;5052817;28;20134;-80
2022/09/27 09:04:54;;;;;;;2.08;0.30;;;;;;;;;;5057925;28;20051;-80
2022/09/27 09:07:24;;;;;;;2.20;0.30;;;;;;;;;;5062627;28;20053;-80
2022/09/27 09:10:08;;;;;;;1.30;0.25;;;;;;;;;;5053428;28;20045;-80
2022/09/27 09:12:46;;;;;;;2.50;0.30;;;;;;;;;;5052972;28;20036;-80
2022/09/27 09:15:16;;;;;;;2.50;0.30;;;;;;;;;;5053703;28;20045;-77
2022/09/27 09:17:42;;;;;;;4.63;0.50;;;;;;;;;;5036656;28;20076;-78
2022/09/27 09:20:41;;;;;;;2.65;0.45;;;;;;;;;;5053453;28;20120;-77
2022/09/27 09:23:22;;;;;;;5.35;0.47;;;;;;;;;;5028412;28;20045;-80
2022/09/27 09:25:51;;;;;;;5.45;0.55;;;;;;;;;;5053334;28;20088;-77
2022/09/27 09:28:25;;;;;;;1.17;0.30;;;;;;;;;;5052590;28;20537;-80
2022/09/27 09:31:07;;;;;;;3.15;0.50;;;;;;;;;;5052775;28;20230;-77
2022/09/27 09:33:39;;;;;;;2.38;0.40;;;;;;;;;;5050682;28;20090;-79
2022/09/27 09:36:10;;;;;;;2.38;0.57;;;;;;;;;;5053055;28;20095;-80
2022/09/27 09:38:39;;;;;;;2.17;0.40;;;;;;;;;;5048620;28;20127;-80
2022/09/27 09:41:10;;;;;;;2.97;0.35;;;;;;;;;;5054034;28;20036;-72
2022/09/27 09:43:47;;;;;;;5.10;0.60;;;;;;;;;;5056002;28;20231;-76
2022/09/27 09:46:17;;;;;;;3.08;0.82;;;;;;;;;;5045800;28;20052;-82
2022/09/27 09:48:45;;;;;;;3.72;0.60;;;;;;;;;;5045532;28;20494;-81
2022/09/27 09:51:17;;;;;;;3.10;0.40;;;;;;;;;;5051719;28;20099;-83
2022/09/27 09:54:02;;;;;;;2.83;0.50;;;;;;;;;;5050811;28;20037;-81
2022/09/27 09:56:33;;;;;;;5.10;0.60;;;;;;;;;;5060096;28;20037;-74
2022/09/27 09:59:01;;;;;;;3.08;0.50;;;;;;;;;;5070584;28;20048;-73
2022/09/27 10:01:44;;;;;;;5.47;0.65;;;;;;;;;;5053674;28;20071;-72
2022/09/27 10:04:20;;;;;;;4.07;0.50;;;;;;;;;;5046506;28;20045;-72
2022/09/27 10:06:46;;;;;;;;;;;;;;;;;;5051915;28;20053;-72
2022/09/27 10:09:13;;;;;;;3.33;0.63;;;;;;;;;;5051842;28;20019;-72
2022/09/27 10:11:40;;;;;;;4.72;0.43;;;;;;;;;;5052260;28;20041;-72
2022/09/27 10:14:11;;;;;;;3.47;0.80;;;;;;;;;;5058018;28;20436;-72
2022/09/27 10:16:41;;;;;;;1.15;0.20;;;;;;;;;;5061705;28;20409;-72
2022/09/27 10:19:08;;;;;;;2.30;0.35;;;;;;;;;;5035350;28;20041;-72
2022/09/27 10:21:38;;;;;;;1.60;0.20;;;;;;;;;;5051164;28;20498;-72
2022/09/27 10:24:12;;;;;;;1.65;0.20;;;;;;;;;;5051740;28;20052;-72
2022/09/27 10:26:41;;;;;;;1.52;0.20;;;;;;;;;;5050406;28;20045;-73
2022/09/27 10:29:34;;;;;;;2.13;0.38;;;;;;;;;;5053215;28;20045;-72
2022/09/27 10:32:02;;;;;;;2.65;0.28;;;;;;;;;;5049610;28;20139;-72
2022/09/27 10:34:40;;;;;;;2.45;0.28;;;;;;;;;;5053383;28;20056;-72
2022/09/27 10:37:12;;;;;;;1.27;0.20;;;;;;;;;;5050724;28;20406;-72
2022/09/27 10:39:40;;;;;;;0.70;0.20;;;;;;;;;;5052398;28;20112;-73
2022/09/27 10:42:25;;;;;;;1.80;0.30;;;;;;;;;;5051629;28;20498;-78
2022/09/27 10:44:51;;;;;;;1.98;0.32;;;;;;;;;;5051218;28;20056;-78
2022/09/27 10:47:22;;;;;;;2.08;0.20;;;;;;;;;;5051685;28;20041;-78
2022/09/27 10:49:52;;;;;;;1.17;0.20;;;;;;;;;;5051360;28;20037;-79
2022/09/27 10:52:27;;;;;;;2.42;0.25;;;;;;;;;;5034722;28;20061;-79
2022/09/27 10:54:55;;;;;;;0.80;0.10;;;;;;;;;;5038379;28;20493;-78
2022/09/27 10:57:23;;;;;;;1.88;0.13;;;;;;;;;;5051449;28;20049;-78
2022/09/27 10:59:54;;;;;;;0.60;0.10;;;;;;;;;;5050736;28;20506;-79
2022/09/27 11:02:21;;;;;;;0.82;0.10;;;;;;;;;;5034975;28;20455;-81
2022/09/27 11:05:03;;;;;;;0.30;0.10;;;;;;;;;;5051207;28;20414;-79
2022/09/27 11:07:29;;;;;;;1.35;0.20;;;;;;;;;;5052476;28;20110;-79
2022/09/27 11:10:01;;;;;;;0.88;0.20;;;;;;;;;;5047743;28;20457;-72
2022/09/27 11:12:29;;;;;;;2.85;0.20;;;;;;;;;;5045871;28;20040;-72
2022/09/27 11:15:06;;;;;;;3.53;0.30;;;;;;;;;;5052906;28;20048;-72
2022/09/27 11:17:55;;;;;;;1.25;0.28;;;;;;;;;;5051313;28;20409;-72
2022/09/27 11:20:31;;;;;;;1.05;0.30;;;;;;;;;;5027821;28;20438;-71
2022/09/27 11:23:04;;;;;;;3.40;0.47;;;;;;;;;;5044517;28;20163;-72
2022/09/27 11:25:39;;;;;;;3.45;0.50;;;;;;;;;;5051139;28;20033;-81
2022/09/27 11:28:11;;;;;;;3.67;0.50;;;;;;;;;;5050893;28;20041;-78
2022/09/27 11:30:39;;;;;;;4.07;0.57;;;;;;;;;;5039026;28;20055;-79
2022/09/27 11:33:11;;;;;;;5.38;0.75;;;;;;;;;;5050951;28;20068;-77
2022/09/27 11:35:47;;;;;;;4.45;0.90;;;;;;;;;;5050528;28;20037;-73
2022/09/27 11:38:22;;;;;;;5.55;0.70;;;;;;;;;;5051574;28;20086;-73
2022/09/27 11:41:07;;;;;;;5.65;0.70;;;;;;;;;;5041051;28;20060;-73
2022/09/27 11:43:45;;;;;;;4.03;0.80;;;;;;;;;;5054638;28;20502;-73
2022/09/27 11:46:31;;;;;;;5.72;0.57;;;;;;;;;;5055104;28;20040;-73
2022/09/27 11:49:12;;;;;;;5.70;0.65;;;;;;;;;;5038060;28;20563;-74
2022/09/27 11:51:57;;;;;;;5.00;0.90;;;;;;;;;;5054970;28;20496;-74
2022/09/27 11:54:42;;;;;;;3.90;0.50;;;;;;;;;;5055410;28;20045;-73
2022/09/27 11:57:11;;;;;;;4.00;0.32;;;;;;;;;;5054737;28;20072;-74
2022/09/27 12:00:09;;;;;;;5.97;0.50;;;;;;;;;;5054960;28;20033;-74
2022/09/27 12:02:50;;;;;;;4.97;0.50;;;;;;;;;;5051455;28;20080;-81
2022/09/27 12:05:19;;;;;;;4.00;0.50;;;;;;;;;;5043977;28;20040;-80
2022/09/27 12:07:54;;;;;;;3.03;0.63;;;;;;;;;;5054722;28;20085;-82
2022/09/27 12:10:21;;;;;;;5.47;0.40;;;;;;;;;;5054474;28;20048;-85
2022/09/27 12:12:53;;;;;;;3.67;0.70;;;;;;;;;;5048831;28;20099;-81
2022/09/27 12:15:22;;;;;;;3.35;0.50;;;;;;;;;;5062669;28;20387;-81
2022/09/27 12:17:52;;;;;;;1.67;0.43;;;;;;;;;;5054907;28;20052;-73
2022/09/27 12:20:27;;;;;;;2.28;0.43;;;;;;;;;;5054411;28;20048;-73
2022/09/27 12:22:59;;;;;;;2.77;1.33;;;;;;;;;;5055302;28;20386;-74
2022/09/27 12:25:26;;;;;;;3.60;0.50;;;;;;;;;;5054933;28;20799;-72
2022/09/27 12:27:56;;;;;;;4.22;0.55;;;;;;;;;;5033834;28;20042;-80
2022/09/27 12:30:22;;;;;;;2.75;0.30;;;;;;;;;;5052774;28;20041;-81
2022/09/27 12:32:51;;;;;;;1.98;0.43;;;;;;;;;;5053903;28;20109;-81
2022/09/27 12:35:23;;;;;;;3.13;0.70;;;;;;;;;;5053355;28;20049;-80
2022/09/27 12:38:09;;;;;;;3.72;0.50;;;;;;;;;;5054163;28;20094;-81
2022/09/27 12:40:35;;;;;;;;;;;;;;;;;;5015397;28;20049;-81
2022/09/27 12:43:08;;;;;;;1.95;0.50;;;;;;;;;;5054663;28;20074;-81
2022/09/27 12:45:57;;;;;;;4.72;0.60;;;;;;;;;;5053087;28;20052;-72
2022/09/27 12:48:26;;;;;;;2.28;0.45;;;;;;;;;;5018017;28;20067;-72
2022/09/27 12:50:59;;;;;;;1.95;0.40;;;;;;;;;;5053007;28;20072;-72
2022/09/27 12:53:29;;;;;;;2.55;0.40;;;;;;;;;;5054077;28;20094;-72
2022/09/27 12:55:55;;;;;;;1.77;0.35;;;;;;;;;;5058214;28;20037;-72
2022/09/27 12:58:24;;;;;;;2.25;0.40;;;;;;;;;;5053516;28;20045;-71
2022/09/27 13:00:54;;;;;;;2.67;0.22;;;;;;;;;;5037295;28;20072;-73
2022/09/27 13:03:25;;;;;;;2.85;0.50;;;;;;;;;;5053181;28;20041;-72
2022/09/27 13:06:01;;;;;;;2.22;0.30;;;;;;;;;;5053232;28;20045;-72
2022/09/27 13:08:30;;;;;;;2.60;0.40;;;;;;;;;;5055044;28;20041;-75
2022/09/27 13:10:59;;;;;;;2.47;0.50;;;;;;;;;;5053493;28;20045;-71
2022/09/27 13:13:28;;;;;;;3.75;0.50;;;;;;;;;;5053064;28;20393;-72
2022/09/27 13:15:59;;;;;;;2.10;0.45;;;;;;;;;;5052828;28;20041;-71
2022/09/27 13:18:28;;;;;;;3.08;0.55;;;;;;;;;;5061708;28;20047;-71
2022/09/27 13:20:54;;;;;;;3.88;0.88;;;;;;;;;;5049466;28;20120;-70
2022/09/27 13:23:21;;;;;;;3.00;0.50;;;;;;;;;;5051749;28;20382;-71
2022/09/27 13:25:51;;;;;;;1.52;0.35;;;;;;;;;;5057771;28;20041;-70
2022/09/27 13:28:26;;;;;;;3.35;0.43;;;;;;;;;;5064814;28;20045;-70
2022/09/27 13:30:53;;;;;;;2.53;0.60;;;;;;;;;;5059956;28;20044;-70
2022/09/27 13:33:20;;;;;;;2.88;0.60;;;;;;;;;;5055896;28;20045;-70
2022/09/27 13:36:05;;;;;;;3.70;0.60;;;;;;;;;;5060855;28;20080;-70
2022/09/27 13:38:31;;;;;;;2.20;0.38;;;;;;;;;;5058075;28;20396;-72
2022/09/27 13:41:18;;;;;;;2.03;0.47;;;;;;;;;;5052892;28;20040;-70
2022/09/27 13:43:44;;;;;;;;;;;;;;;;;;5057073;28;20512;-71
2022/09/27 13:46:19;;;;;;;2.03;0.47;;;;;;;;;;5069115;28;19931;-71
2022/09/27 13:49:17;;;;;;;2.28;0.50;;;;;;;;;;5053188;28;20433;-70
2022/09/27 13:51:48;;;;;;;1.98;0.32;;;;;;;;;;5041514;28;20044;-70
2022/09/27 13:54:33;;;;;;;2.15;0.30;;;;;;;;;;5052979;28;20051;-71
2022/09/27 13:57:00;;;;;;;2.38;0.40;;;;;;;;;;5052682;28;20126;-70
2022/09/27 13:59:32;;;;;;;1.58;0.30;;;;;;;;;;5052321;28;20051;-70
2022/09/27 14:02:11;;;;;;;8.13;0.70;;;;;;;;;;5060712;28;20047;-76
2022/09/27 14:04:43;;;;;;;3.40;0.50;;;;;;;;;;5064960;28;20524;-72
2022/09/27 14:07:12;;;;;;;5.32;0.60;;;;;;;;;;5079920;28;20041;-75
2022/09/27 14:09:39;;;;;;;3.13;0.65;;;;;;;;;;5058760;28;20491;-73
2022/09/27 14:12:09;;;;;;;4.30;0.80;;;;;;;;;;5062455;28;20040;-72
2022/09/27 14:14:36;;;;;;;4.28;0.50;;;;;;;;;;5063133;28;20134;-73
2022/09/27 14:17:06;;;;;;;2.15;0.45;;;;;;;;;;5061959;28;20128;-73
2022/09/27 14:19:32;;;;;;;1.90;0.40;;;;;;;;;;5060403;28;20052;-75
2022/09/27 14:21:59;;;;;;;8.80;1.00;;;;;;;;;;5058804;28;20082;-76
2022/09/27 14:24:27;;;;;;;3.92;0.60;;;;;;;;;;5052685;28;20150;-78
2022/09/27 14:27:22;;;;;;;2.10;0.50;;;;;;;;;;5061436;28;20033;-76
2022/09/27 14:29:51;;;;;;;3.03;0.43;;;;;;;;;;5036749;28;20470;-78
2022/09/27 14:32:25;;;;;;;2.63;0.40;;;;;;;;;;5054274;28;20053;-77
2022/09/27 14:37:22;;;;;;;3.58;0.50;;;;;;;;;;5059861;28;20375;-73
2022/09/27 14:37:52;;;;;;;2.40;0.60;;;;;;;;;;5055892;28;20106;-74
2022/09/27 14:40:19;;;;;;;1.77;0.40;;;;;;;;;;5054351;28;20044;-73
2022/09/27 14:42:47;;;;;;;3.53;0.52;;;;;;;;;;5057585;28;20032;-74
2022/09/27 14:45:21;;;;;;;2.83;0.60;;;;;;;;;;5056411;28;20120;-73
2022/09/27 14:47:48;;;;;;;4.95;1.52;;;;;;;;;;5057995;28;20047;-78
2022/09/27 14:50:23;;;;;;;3.45;0.68;;;;;;;;;;5056609;28;20041;-78
2022/09/27 14:52:54;;;;;;;3.05;0.70;;;;;;;;;;5060131;28;20405;-73
2022/09/27 14:55:21;;;;;;;3.50;0.98;;;;;;;;;;5050801;28;20048;-72
2022/09/27 14:57:52;;;;;;;3.80;0.70;;;;;;;;;;5062427;28;20048;-76
2022/09/27 15:00:23;;;;;;;3.35;0.75;;;;;;;;;;5061071;28;20041;-78
2022/09/27 15:02:54;;;;;;;2.58;0.70;;;;;;;;;;5060878;28;20451;-70
2022/09/27 15:05:22;;;;;;;2.33;0.70;;;;;;;;;;5050348;28;20037;-71